Airfield :
LOGIN :

Register | Disclaimer

   EN    FR    IT 

 










Legend :    VFR   Marginal VFR   IFR   Intensive IFR   Very Intensive IFR
Visi :
Ceiling :
>= 8 km
>= 3000ft
5 to 8 km
1000 to 3000 ft
1500m to 5 km
500 to 1000 ft
800 to 1500m
200 to 500 ft
< 800m
< 200 ft
Symbols :   Thunderstorms  Fog  Heavy snow  Heavy precipitations  Wind > 20 kt
SIGMETs :     Misc.  Thunderstorms  Icing  Turbulence  Mountain Waves  Volcanic Ashes






- Airport Elevation : 1115 ft
- IATA code : GRZ


LOWG - Graz

CURRENT METAR :
  • 011220Z VRB02KT 8000 -RA FEW003 BKN007 BKN014 02/01 Q1022 TEMPO BKN010

EXPIRED METARs :
  • 011150Z 33003KT 300V360 8000 -RA FEW003 BKN006 BKN014 03/01 Q1022 TEMPO BKN010
  • 011120Z VRB02KT 7000 -RA FEW003 BKN006 BKN011 03/02 Q1022 TEMPO BKN010
  • 011050Z 30003KT 260V330 7000 -RA FEW003 SCT005 BKN011 03/02 Q1022 TEMPO BKN009
  • 011020Z VRB02KT 7000 -RA FEW003 BKN008 OVC025 02/01 Q1023 TEMPO BKN010
  • 010950Z 32002KT 7000 -RA FEW003 BKN007 OVC020 02/01 Q1023 TEMPO BKN010

TAF TAF LOWG
Valid from the 01 at 12:00 until the 02 at 12:00 UTC


011115Z 0112/0212 VRB04KT 9999 BKN030 TX03/0113Z TN01/0210Z
PROB40
TEMPO 0112/0118 -RA
PROB30
TEMPO 0112/0212 -DZ BKN009
TEMPO 0201/0212 2000 SN RASN VV004



MET'MAP, your aeronautical weather chart ! - Copyright ORBIFLY December 2007 - Disclaimer

ORBIFLY MET'MAP TEAM :

Programming & Development : Alexandra Zaïnal
Original concept : Baudouin d'Aumeries
Technical & hardware support : Manuel Goepfert
Assistance : Marc-Olivier Méhu




SOURCES & CREDITS :

   NOAA